createdAt,value
2018-07-23T00:01:20.227Z,10.23
2018-07-23T00:03:50.485Z,10.30
2018-07-23T00:06:19.897Z,9.40
2018-07-23T00:08:49.403Z,10.03
2018-07-23T00:11:18.972Z,10.07
2018-07-23T00:13:48.432Z,8.93
2018-07-23T00:16:18.114Z,9.97
2018-07-23T00:18:47.821Z,9.93
2018-07-23T00:21:17.421Z,11.33
2018-07-23T00:23:46.953Z,8.97
2018-07-23T00:26:17.291Z,8.33
2018-07-23T00:28:47.275Z,8.23
2018-07-23T00:31:16.918Z,11.07
2018-07-23T00:33:46.274Z,8.40
2018-07-23T00:36:17.031Z,8.07
2018-07-23T00:38:46.685Z,9.27
2018-07-23T00:41:16.769Z,8.17
2018-07-23T00:43:46.392Z,7.90
2018-07-23T00:46:16.035Z,9.00
2018-07-23T00:48:45.904Z,11.30
2018-07-23T00:51:15.295Z,8.87
2018-07-23T00:53:44.909Z,9.23
2018-07-23T00:56:14.594Z,8.33
2018-07-23T00:58:44.192Z,8.80
2018-07-23T01:01:13.516Z,7.87
2018-07-23T01:03:42.694Z,8.50
2018-07-23T01:06:11.942Z,7.87
2018-07-23T01:08:42.242Z,7.90
2018-07-23T01:11:11.747Z,7.67
2018-07-23T01:13:41.150Z,7.50
2018-07-23T01:16:10.544Z,9.60
2018-07-23T01:18:40.023Z,9.10
2018-07-23T01:21:09.756Z,8.97
2018-07-23T01:23:39.287Z,8.80
2018-07-23T01:26:09.420Z,14.53
2018-07-23T01:28:39.061Z,8.03
2018-07-23T01:31:08.658Z,9.13
2018-07-23T01:33:38.127Z,8.80
2018-07-23T01:36:08.176Z,10.50
2018-07-23T01:38:37.587Z,8.73
2018-07-23T01:41:08.826Z,11.63
2018-07-23T01:43:38.703Z,8.37
2018-07-23T01:46:08.640Z,7.83
2018-07-23T01:48:39.523Z,8.93
2018-07-23T01:51:08.625Z,8.40
2018-07-23T01:53:38.291Z,8.50
2018-07-23T01:56:07.713Z,8.17
2018-07-23T01:58:37.495Z,10.23
2018-07-23T02:01:10.866Z,8.97
2018-07-23T02:03:41.791Z,11.70
2018-07-23T02:06:11.593Z,9.03
2018-07-23T02:08:41.277Z,9.67
2018-07-23T02:11:11.557Z,9.10
2018-07-23T02:13:41.171Z,9.50
2018-07-23T02:16:11.375Z,9.90
2018-07-23T02:18:40.942Z,10.83
2018-07-23T02:21:11.481Z,9.37
2018-07-23T02:23:41.373Z,12.17
2018-07-23T02:26:11.337Z,10.83
2018-07-23T02:28:40.931Z,9.37
2018-07-23T02:31:10.417Z,10.20
2018-07-23T02:33:40.247Z,9.67
2018-07-23T02:36:10.468Z,10.10
2018-07-23T02:38:39.855Z,9.17
2018-07-23T02:41:09.883Z,9.70
2018-07-23T02:43:40.045Z,9.30
2018-07-23T02:46:09.545Z,10.03
2018-07-23T02:48:39.116Z,10.73
2018-07-23T02:51:09.097Z,10.97
2018-07-23T02:53:39.185Z,10.10
2018-07-23T02:56:08.966Z,10.00
2018-07-23T02:58:39.437Z,10.47
2018-07-23T03:01:08.747Z,11.40
2018-07-23T03:03:39.051Z,10.50
2018-07-23T03:06:08.708Z,11.73
2018-07-23T03:08:38.405Z,10.50
2018-07-23T03:11:08.025Z,11.57
2018-07-23T03:13:37.881Z,13.00
2018-07-23T03:16:08.620Z,11.10
2018-07-23T03:18:38.720Z,11.07
2018-07-23T03:21:08.460Z,11.13
2018-07-23T03:23:37.990Z,10.57
2018-07-23T03:26:07.670Z,10.63
2018-07-23T03:28:37.218Z,11.30
2018-07-23T03:31:07.302Z,11.10
2018-07-23T03:33:36.784Z,11.07
2018-07-23T03:36:06.774Z,12.37
2018-07-23T03:38:36.402Z,11.00
2018-07-23T03:41:06.506Z,13.27
2018-07-23T03:43:35.722Z,11.13
2018-07-23T03:46:07.057Z,11.23
2018-07-23T03:48:53.350Z,11.90
2018-07-23T03:51:35.857Z,11.83
2018-07-23T03:54:17.438Z,12.27
2018-07-23T03:56:57.375Z,11.47
2018-07-23T03:59:34.933Z,11.47
2018-07-23T04:02:09.094Z,10.83
2018-07-23T04:04:55.010Z,13.10
2018-07-23T04:07:36.800Z,11.97
2018-07-23T04:10:19.966Z,12.20
2018-07-23T04:12:53.991Z,11.47
2018-07-23T04:15:29.475Z,12.20
2018-07-23T04:18:05.124Z,12.50
2018-07-23T04:20:44.608Z,12.13
2018-07-23T04:23:18.824Z,12.63
2018-07-23T04:25:56.020Z,11.80
2018-07-23T04:28:34.276Z,14.90
2018-07-23T04:31:14.143Z,12.80
2018-07-23T04:34:00.485Z,12.07
2018-07-23T04:36:40.077Z,14.17
2018-07-23T04:39:20.875Z,13.43
2018-07-23T04:41:58.189Z,12.77
2018-07-23T04:44:28.487Z,14.27
2018-07-23T04:46:57.994Z,13.33
2018-07-23T04:49:27.615Z,12.90
2018-07-23T04:51:57.157Z,13.90
2018-07-23T04:54:26.967Z,16.60
2018-07-23T04:56:56.632Z,12.60
2018-07-23T04:59:26.189Z,13.00
2018-07-23T05:01:55.758Z,12.53
2018-07-23T05:04:25.277Z,15.20
2018-07-23T05:06:54.941Z,14.30
2018-07-23T05:09:25.375Z,15.40
2018-07-23T05:11:54.883Z,14.63
2018-07-23T05:14:24.374Z,14.27
2018-07-23T05:16:55.184Z,14.47
2018-07-23T05:19:24.786Z,13.93
2018-07-23T05:21:54.148Z,15.07
2018-07-23T05:24:23.975Z,14.17
2018-07-23T05:26:53.640Z,15.90
2018-07-23T05:29:23.450Z,15.97
2018-07-23T05:31:53.164Z,34.90
2018-07-23T05:34:22.628Z,15.27
2018-07-23T05:36:51.994Z,23.63
2018-07-23T05:39:22.092Z,13.80
2018-07-23T05:41:51.601Z,18.37
2018-07-23T05:44:21.332Z,15.47
2018-07-23T05:46:51.018Z,15.57
2018-07-23T05:49:20.632Z,14.60
2018-07-23T05:51:50.325Z,14.83
2018-07-23T05:54:19.789Z,18.80
2018-07-23T05:56:49.353Z,38.27
2018-07-23T05:59:19.565Z,14.50
2018-07-23T06:01:49.489Z,14.50
2018-07-23T06:04:19.729Z,14.27
2018-07-23T06:06:49.688Z,17.43
2018-07-23T06:09:19.401Z,14.97
2018-07-23T06:11:49.845Z,14.47
2018-07-23T06:14:19.680Z,23.10
2018-07-23T06:16:49.521Z,13.93
2018-07-23T06:19:19.169Z,13.63
2018-07-23T06:21:49.422Z,13.33
2018-07-23T06:24:19.776Z,15.97
2018-07-23T06:26:49.511Z,13.67
2018-07-23T06:29:19.016Z,12.73
2018-07-23T06:31:48.718Z,19.33
2018-07-23T06:34:18.346Z,12.30
2018-07-23T06:36:47.915Z,12.27
2018-07-23T06:39:17.595Z,12.47
2018-07-23T06:41:47.307Z,14.40
2018-07-23T06:44:16.908Z,14.17
2018-07-23T06:46:46.383Z,11.03
2018-07-23T06:49:16.240Z,11.23
2018-07-23T06:51:46.063Z,15.30
2018-07-23T06:54:15.766Z,16.00
2018-07-23T06:56:45.384Z,12.40
2018-07-23T06:59:15.893Z,10.07
2018-07-23T07:01:45.881Z,11.90
2018-07-23T07:04:15.430Z,14.23
2018-07-23T07:06:45.037Z,11.30
2018-07-23T07:09:14.590Z,10.30
2018-07-23T07:11:44.314Z,10.47
2018-07-23T07:14:14.115Z,10.63
2018-07-23T07:16:43.692Z,14.83
2018-07-23T07:19:13.006Z,12.50
2018-07-23T07:21:42.738Z,11.03
2018-07-23T07:24:12.244Z,11.30
2018-07-23T07:26:42.544Z,12.60
2018-07-23T07:29:12.180Z,9.40
2018-07-23T07:31:42.064Z,9.53
2018-07-23T07:34:11.843Z,12.17
2018-07-23T07:36:41.856Z,8.63
2018-07-23T07:39:12.804Z,11.60
2018-07-23T07:41:42.484Z,8.50
2018-07-23T07:44:12.026Z,10.67
2018-07-23T07:46:50.020Z,9.77
2018-07-23T07:49:20.582Z,9.00
2018-07-23T07:51:50.855Z,8.60
2018-07-23T07:54:20.297Z,11.70
2018-07-23T07:56:56.660Z,9.63
2018-07-23T07:59:27.235Z,9.70
2018-07-23T08:01:57.693Z,8.57
2018-07-23T08:04:27.671Z,11.53
2018-07-23T08:06:56.885Z,8.57
2018-07-23T08:09:26.481Z,10.97
2018-07-23T08:11:56.668Z,10.70
2018-07-23T08:14:26.570Z,9.57
2018-07-23T08:16:56.387Z,11.37
2018-07-23T08:19:25.974Z,8.63
2018-07-23T08:21:55.888Z,10.47
2018-07-23T08:24:25.608Z,9.70
2018-07-23T08:26:55.444Z,16.10
2018-07-23T08:29:25.111Z,7.20
2018-07-23T08:31:54.622Z,7.78
2018-07-23T08:34:24.165Z,10.10
2018-07-23T08:36:54.889Z,7.12
2018-07-23T08:39:25.161Z,7.17
2018-07-23T08:41:54.865Z,10.23
2018-07-23T08:44:24.509Z,8.85
2018-07-23T08:46:54.313Z,7.15
2018-07-23T08:49:23.725Z,8.33
2018-07-23T08:51:54.011Z,6.62
2018-07-23T08:54:23.779Z,9.90
2018-07-23T08:56:54.349Z,9.88
2018-07-23T08:59:24.021Z,11.12
2018-07-23T09:01:53.847Z,7.03
2018-07-23T09:04:23.901Z,6.83
2018-07-23T09:06:53.093Z,6.70
2018-07-23T09:09:22.403Z,7.72
2018-07-23T09:11:52.778Z,7.55
2018-07-23T09:14:22.367Z,8.18
2018-07-23T09:16:51.919Z,6.83
2018-07-23T09:19:21.534Z,8.30
2018-07-23T09:21:50.967Z,7.03
2018-07-23T09:24:21.492Z,9.98
2018-07-23T09:26:51.165Z,8.45
2018-07-23T09:29:21.082Z,7.47
2018-07-23T09:31:50.961Z,6.92
2018-07-23T09:34:20.339Z,9.10
2018-07-23T09:36:50.776Z,8.50
2018-07-23T09:39:20.249Z,6.22
2018-07-23T09:41:50.005Z,7.37
2018-07-23T09:44:20.403Z,11.60
2018-07-23T09:46:49.692Z,12.35
2018-07-23T09:49:19.452Z,5.60
2018-07-23T09:51:49.034Z,5.53
2018-07-23T09:54:18.737Z,6.25
2018-07-23T09:56:48.737Z,7.03
2018-07-23T09:59:18.987Z,5.58
2018-07-23T10:01:49.212Z,5.20
2018-07-23T10:04:18.734Z,6.65
2018-07-23T10:06:48.339Z,7.17
2018-07-23T10:09:18.440Z,7.85
2018-07-23T10:11:48.444Z,5.35
2018-07-23T10:14:17.956Z,5.60
2018-07-23T10:16:48.073Z,5.62
2018-07-23T10:19:18.120Z,8.30
2018-07-23T10:21:47.825Z,6.72
2018-07-23T10:24:17.820Z,6.53
2018-07-23T10:26:47.626Z,8.70
2018-07-23T10:29:17.145Z,5.12
2018-07-23T10:31:46.883Z,10.10
2018-07-23T10:34:16.653Z,8.00
2018-07-23T10:36:46.311Z,10.13
2018-07-23T10:39:16.046Z,6.53
2018-07-23T10:41:44.997Z,8.38
2018-07-23T10:44:14.806Z,7.05
2018-07-23T10:46:44.351Z,8.20
2018-07-23T10:49:14.817Z,5.30
2018-07-23T10:51:44.328Z,5.75
2018-07-23T10:54:13.899Z,5.30
2018-07-23T10:56:43.489Z,7.53
2018-07-23T10:59:12.937Z,5.67
2018-07-23T11:01:43.318Z,6.60
2018-07-23T11:04:13.352Z,6.42
2018-07-23T11:06:42.607Z,5.83
2018-07-23T11:09:12.042Z,5.20
2018-07-23T11:11:42.503Z,8.13
2018-07-23T11:14:11.859Z,8.95
2018-07-23T11:16:42.984Z,6.50
2018-07-23T11:19:14.178Z,5.65
2018-07-23T11:21:44.075Z,5.62
2018-07-23T11:24:13.728Z,6.25
2018-07-23T11:26:43.722Z,5.72
2018-07-23T11:29:13.620Z,9.20
2018-07-23T11:31:43.050Z,9.33
2018-07-23T11:34:12.834Z,6.35
2018-07-23T11:36:42.447Z,5.37
2018-07-23T11:39:13.294Z,6.53
2018-07-23T11:41:42.707Z,6.62
2018-07-23T11:44:12.230Z,8.20
2018-07-23T11:46:41.783Z,6.37
2018-07-23T11:49:11.334Z,6.03
2018-07-23T11:51:40.987Z,5.70
2018-07-23T11:54:10.033Z,7.75
2018-07-23T11:56:39.749Z,4.90
2018-07-23T11:59:09.408Z,6.00
2018-07-23T12:01:38.686Z,6.00
2018-07-23T12:04:10.404Z,7.37
2018-07-23T12:06:38.175Z,4.08
2018-07-23T12:09:10.088Z,4.83
2018-07-23T12:11:39.790Z,4.80
2018-07-23T12:14:10.086Z,5.78
2018-07-23T12:16:39.795Z,6.50
2018-07-23T12:19:10.845Z,4.17
2018-07-23T12:21:40.965Z,8.73
2018-07-23T12:24:12.848Z,4.30
2018-07-23T12:26:42.828Z,5.40
2018-07-23T12:29:12.462Z,5.22
2018-07-23T12:31:42.332Z,4.28
2018-07-23T12:34:12.000Z,30.23
2018-07-23T12:36:41.541Z,8.95
2018-07-23T12:39:11.945Z,5.53
2018-07-23T12:41:42.444Z,3.90
2018-07-23T12:44:12.270Z,6.45
2018-07-23T12:46:42.128Z,4.33
2018-07-23T12:49:11.366Z,5.55
2018-07-23T12:51:41.692Z,3.55
2018-07-23T12:54:11.304Z,4.33
2018-07-23T12:56:40.952Z,6.80
2018-07-23T12:59:10.897Z,3.65
2018-07-23T13:01:40.468Z,8.90
2018-07-23T13:04:10.042Z,12.07
2018-07-23T13:06:39.792Z,5.03
2018-07-23T13:09:11.843Z,5.25
2018-07-23T13:11:41.474Z,7.22
2018-07-23T13:14:11.208Z,6.42
2018-07-23T13:16:41.442Z,5.03
2018-07-23T13:19:11.053Z,7.75
2018-07-23T13:21:40.727Z,7.20
2018-07-23T13:24:10.145Z,6.08
2018-07-23T13:26:40.365Z,4.72
2018-07-23T13:29:10.109Z,6.00
2018-07-23T13:31:40.246Z,8.50
2018-07-23T13:34:09.968Z,6.03
2018-07-23T13:36:40.500Z,4.67
2018-07-23T13:39:11.422Z,5.40
2018-07-23T13:41:41.162Z,6.83
2018-07-23T13:44:12.106Z,3.98
2018-07-23T13:46:41.718Z,4.60
2018-07-23T13:49:11.214Z,5.75
2018-07-23T13:51:41.610Z,4.10
2018-07-23T13:54:12.134Z,5.75
2018-07-23T13:56:41.281Z,10.30
2018-07-23T13:59:10.983Z,5.15
2018-07-23T14:01:40.715Z,4.47
2018-07-23T14:04:10.322Z,5.03
2018-07-23T14:06:39.855Z,8.60
2018-07-23T14:09:11.469Z,15.78
2018-07-23T14:11:41.248Z,7.65
2018-07-23T14:14:12.439Z,9.88
2018-07-23T14:16:42.242Z,7.47
2018-07-23T14:19:11.881Z,7.97
2018-07-23T14:21:41.632Z,8.45
2018-07-23T14:24:11.213Z,7.85
2018-07-23T14:26:40.924Z,7.05
2018-07-23T14:29:10.439Z,11.05
2018-07-23T14:31:40.509Z,10.45
2018-07-23T14:34:10.293Z,9.45
2018-07-23T14:36:40.658Z,7.62
2018-07-23T14:39:13.028Z,6.83
2018-07-23T14:41:43.007Z,7.65
2018-07-23T14:44:13.165Z,10.43
2018-07-23T14:46:42.670Z,10.55
2018-07-23T14:49:12.436Z,8.78
2018-07-23T14:51:42.384Z,9.23
2018-07-23T14:54:12.063Z,6.50
2018-07-23T14:56:41.582Z,7.45
2018-07-23T14:59:11.089Z,8.15
2018-07-23T15:01:40.668Z,8.18
2018-07-23T15:04:10.131Z,8.48
2018-07-23T15:06:40.177Z,8.88
2018-07-23T15:09:10.620Z,10.98
2018-07-23T15:11:40.918Z,8.15
2018-07-23T15:14:10.404Z,8.70
2018-07-23T15:16:40.159Z,6.53
2018-07-23T15:19:09.724Z,8.23
2018-07-23T15:21:39.313Z,7.08
2018-07-23T15:24:09.379Z,7.72
2018-07-23T15:26:39.899Z,10.60
2018-07-23T15:29:10.061Z,7.85
2018-07-23T15:31:40.632Z,6.30
2018-07-23T15:34:10.053Z,7.75
2018-07-23T15:36:39.111Z,6.42
2018-07-23T15:39:10.133Z,8.38
2018-07-23T15:41:40.318Z,5.92
2018-07-23T15:44:09.928Z,9.53
2018-07-23T15:46:39.558Z,9.70
2018-07-23T15:49:08.994Z,7.12
2018-07-23T15:51:38.364Z,6.53
2018-07-23T15:54:07.892Z,7.47
2018-07-23T15:56:37.604Z,8.88
2018-07-23T15:59:07.225Z,9.13
2018-07-23T16:01:36.927Z,7.62
2018-07-23T16:04:06.566Z,12.00
2018-07-23T16:06:36.780Z,8.55
2018-07-23T16:09:11.088Z,6.65
2018-07-23T16:11:41.162Z,7.72
2018-07-23T16:14:11.668Z,5.53
2018-07-23T16:16:41.210Z,6.67
2018-07-23T16:19:11.901Z,5.75
2018-07-23T16:21:42.225Z,8.90
2018-07-23T16:24:11.683Z,5.47
2018-07-23T16:26:41.965Z,4.83
2018-07-23T16:29:11.707Z,7.08
2018-07-23T16:31:41.441Z,4.87
2018-07-23T16:34:10.929Z,6.05
2018-07-23T16:36:40.626Z,9.05
2018-07-23T16:39:12.340Z,5.95
2018-07-23T16:41:43.008Z,6.25
2018-07-23T16:44:12.873Z,4.03
2018-07-23T16:46:43.566Z,5.35
2018-07-23T16:49:14.050Z,5.62
2018-07-23T16:51:43.436Z,3.85
2018-07-23T16:54:12.940Z,5.60
2018-07-23T16:56:42.652Z,7.97
2018-07-23T16:59:12.161Z,4.30
2018-07-23T17:01:42.600Z,5.70
2018-07-23T17:04:12.064Z,5.55
2018-07-23T17:06:42.415Z,8.98
2018-07-23T17:09:12.853Z,7.37
2018-07-23T17:11:43.318Z,5.20
2018-07-23T17:14:12.806Z,6.12
2018-07-23T17:16:42.268Z,8.50
2018-07-23T17:19:11.976Z,5.75
2018-07-23T17:21:42.794Z,5.03
2018-07-23T17:24:12.162Z,5.33
2018-07-23T17:26:41.873Z,5.55
2018-07-23T17:29:11.541Z,6.25
2018-07-23T17:31:41.563Z,5.00
2018-07-23T17:34:11.189Z,6.62
2018-07-23T17:36:40.709Z,6.97
2018-07-23T17:39:12.377Z,6.62
2018-07-23T17:41:42.146Z,8.20
2018-07-23T17:44:12.058Z,8.53
2018-07-23T17:46:41.920Z,4.92
2018-07-23T17:49:11.496Z,8.35
2018-07-23T17:51:41.393Z,5.85
2018-07-23T17:54:10.859Z,7.53
2018-07-23T17:56:40.555Z,4.60
2018-07-23T17:59:10.281Z,4.27
2018-07-23T18:01:40.025Z,4.93
2018-07-23T18:04:11.067Z,7.17
2018-07-23T18:06:40.403Z,6.90
2018-07-23T18:09:12.215Z,4.77
2018-07-23T18:11:42.203Z,7.60
2018-07-23T18:14:12.514Z,7.53
2018-07-23T18:16:42.283Z,6.67
2018-07-23T18:19:11.267Z,6.57
2018-07-23T18:21:40.777Z,6.27
2018-07-23T18:24:10.182Z,9.73
2018-07-23T18:26:39.960Z,6.57
2018-07-23T18:29:09.823Z,6.63
2018-07-23T18:31:39.459Z,6.17
2018-07-23T18:34:10.088Z,7.93
2018-07-23T18:36:39.584Z,6.53
2018-07-23T18:39:11.155Z,6.40
2018-07-23T18:41:41.000Z,7.73
2018-07-23T18:44:10.532Z,7.87
2018-07-23T18:46:40.409Z,7.87
2018-07-23T18:50:13.533Z,11.63
2018-07-23T18:52:42.972Z,7.73
2018-07-23T18:55:12.565Z,13.20
2018-07-23T18:57:42.319Z,7.07
2018-07-23T19:00:12.978Z,8.23
2018-07-23T19:02:43.163Z,8.37
2018-07-23T19:05:12.212Z,8.47
2018-07-23T19:07:41.626Z,9.43
2018-07-23T19:10:11.096Z,8.60
2018-07-23T19:12:40.554Z,8.90
2018-07-23T19:15:10.106Z,10.47
2018-07-23T19:17:39.937Z,15.57
2018-07-23T19:20:09.559Z,10.33
2018-07-23T19:22:39.322Z,6.50
2018-07-23T19:25:08.774Z,7.00
2018-07-23T19:27:38.426Z,6.63
2018-07-23T19:30:09.074Z,8.10
2018-07-23T19:32:39.757Z,9.53
2018-07-23T19:35:09.169Z,9.27
2018-07-23T19:37:38.888Z,12.53
2018-07-23T19:40:08.450Z,8.73
2018-07-23T19:42:38.646Z,8.23
2018-07-23T19:45:08.208Z,8.97
2018-07-23T19:47:37.910Z,9.80
2018-07-23T19:50:07.388Z,8.67
2018-07-23T19:52:37.418Z,9.17
2018-07-23T19:55:06.988Z,7.37
2018-07-23T19:57:36.521Z,9.47
2018-07-23T20:00:05.899Z,10.20
2018-07-23T20:02:35.518Z,9.30
2018-07-23T20:05:05.111Z,15.53
2018-07-23T20:07:38.641Z,9.70
2018-07-23T20:10:19.902Z,7.13
2018-07-23T20:12:49.518Z,9.00
2018-07-23T20:15:19.211Z,12.57
2018-07-23T20:17:50.653Z,9.47
2018-07-23T20:20:23.225Z,9.27
2018-07-23T20:22:55.212Z,9.63
2018-07-23T20:25:25.629Z,13.43
2018-07-23T20:27:59.183Z,11.93
2018-07-23T20:30:31.412Z,14.60
2018-07-23T20:33:06.221Z,10.43
2018-07-23T20:35:35.771Z,14.67
2018-07-23T20:38:08.107Z,10.40
2018-07-23T20:40:40.758Z,9.53
2018-07-23T20:43:12.111Z,13.33
2018-07-23T20:45:45.094Z,12.50
2018-07-23T20:48:19.666Z,15.17
2018-07-23T20:50:57.192Z,12.60
2018-07-23T20:53:34.146Z,13.37
2018-07-23T20:56:04.504Z,10.30
2018-07-23T20:58:33.957Z,13.93
2018-07-23T21:01:03.836Z,11.63
2018-07-23T21:03:33.696Z,12.67
2018-07-23T21:06:03.345Z,12.57
2018-07-23T21:08:32.689Z,13.67
2018-07-23T21:11:03.741Z,14.23
2018-07-23T21:13:33.490Z,11.10
2018-07-23T21:16:03.085Z,10.93
2018-07-23T21:18:32.410Z,14.77
2018-07-23T21:21:02.398Z,13.87
2018-07-23T21:23:32.531Z,12.90
2018-07-23T21:26:02.277Z,13.47
2018-07-23T21:28:31.310Z,16.40
2018-07-23T21:31:00.770Z,13.23
2018-07-23T21:33:30.805Z,12.20
2018-07-23T21:36:00.387Z,13.93
2018-07-23T21:38:29.704Z,14.03
2018-07-23T21:40:59.241Z,12.00
2018-07-23T21:43:28.984Z,14.70
2018-07-23T21:45:58.823Z,12.37
2018-07-23T21:48:29.230Z,13.90
2018-07-23T21:50:58.666Z,14.40
2018-07-23T21:53:28.137Z,12.43
2018-07-23T21:55:58.081Z,13.13
2018-07-23T21:58:27.569Z,10.70
2018-07-23T22:00:56.980Z,14.37
2018-07-23T22:03:26.578Z,12.53
2018-07-23T22:05:56.049Z,16.90
2018-07-23T22:08:25.800Z,14.63
2018-07-23T22:10:55.160Z,13.97
2018-07-23T22:13:24.757Z,11.83
2018-07-23T22:15:54.810Z,14.70
2018-07-23T22:18:24.768Z,12.07
2018-07-23T22:20:54.601Z,11.63
2018-07-23T22:23:24.261Z,14.17
2018-07-23T22:25:53.881Z,16.07
2018-07-23T22:28:24.475Z,13.27
2018-07-23T22:30:53.694Z,11.97
2018-07-23T22:33:23.853Z,14.97
2018-07-23T22:35:53.472Z,12.07
2018-07-23T22:38:23.367Z,11.77
2018-07-23T22:40:52.667Z,12.57
2018-07-23T22:43:22.769Z,13.17
2018-07-23T22:45:52.017Z,11.30
2018-07-23T22:48:25.037Z,11.63
2018-07-23T22:50:54.638Z,13.33
2018-07-23T22:53:23.980Z,13.60
2018-07-23T22:55:53.594Z,12.17
2018-07-23T22:58:23.456Z,18.50
2018-07-23T23:00:53.031Z,12.23
2018-07-23T23:03:22.560Z,13.83
2018-07-23T23:05:52.630Z,14.03
2018-07-23T23:08:21.544Z,14.43
2018-07-23T23:10:51.019Z,12.35
2018-07-23T23:13:20.340Z,12.33
2018-07-23T23:15:49.594Z,12.60
2018-07-23T23:18:19.670Z,12.90
2018-07-23T23:20:50.904Z,13.45
2018-07-23T23:23:20.432Z,16.50
2018-07-23T23:25:50.256Z,13.33
2018-07-23T23:28:20.231Z,12.55
2018-07-23T23:30:50.208Z,11.97
2018-07-23T23:33:19.702Z,12.80
2018-07-23T23:35:49.948Z,14.03
2018-07-23T23:38:19.432Z,12.97
2018-07-23T23:40:49.832Z,12.43
2018-07-23T23:43:20.374Z,16.83
2018-07-23T23:45:50.180Z,15.40
2018-07-23T23:48:19.502Z,16.03
2018-07-23T23:50:49.228Z,16.20
2018-07-23T23:53:18.992Z,15.20
2018-07-23T23:55:48.835Z,18.03
2018-07-23T23:58:18.615Z,19.47
